Time;durP1;ratioP1;P1;durP2;ratioP2;P2;SDS_P1;SDS_P2;PMS_P1;PMS_P2;Temp;Humidity;BMP_temperature;BMP_pressure;BME280_temperature;BME280_humidity;BME280_pressure;Samples;Min_cycle;Max_cycle;Signal;HPM_P1;HPM_P2
2022/04/26 03:36:48;;;;;;;64.80;31.30;;;6.40;99.90;;;;;;5055866;28;20033;-75
2022/04/26 03:39:15;;;;;;;64.03;33.28;;;6.40;99.90;;;;;;5054499;28;20021;-75
2022/04/26 03:41:41;;;;;;;58.28;30.60;;;6.40;99.90;;;;;;5055598;28;20502;-74
2022/04/26 03:44:06;;;;;;;59.38;31.13;;;6.40;99.90;;;;;;5055669;28;20017;-75
2022/04/26 03:46:32;;;;;;;59.67;28.92;;;6.30;99.90;;;;;;5055603;28;20470;-76
2022/04/26 03:48:57;;;;;;;62.10;30.45;;;6.30;99.90;;;;;;5054251;28;20028;-74
2022/04/26 03:51:23;;;;;;;64.15;30.58;;;6.30;99.90;;;;;;5054214;28;20091;-74
2022/04/26 03:53:48;;;;;;;62.60;32.35;;;6.40;99.90;;;;;;5054226;28;20060;-73
2022/04/26 03:56:14;;;;;;;58.65;30.50;;;6.40;99.90;;;;;;5055451;28;20446;-75
2022/04/26 03:58:40;;;;;;;59.78;30.40;;;6.30;99.90;;;;;;5055414;28;20100;-74
2022/04/26 04:01:05;;;;;;;62.42;31.17;;;6.40;99.90;;;;;;5055321;28;20060;-74
2022/04/26 04:03:31;;;;;;;60.42;28.92;;;6.40;99.90;;;;;;5055499;28;20482;-73
2022/04/26 04:05:56;;;;;;;58.67;29.98;;;6.40;99.90;;;;;;5055255;28;20083;-74
2022/04/26 04:08:22;;;;;;;56.80;30.95;;;6.40;99.90;;;;;;5055232;28;20075;-75
2022/04/26 04:10:47;;;;;;;59.30;31.35;;;6.40;99.90;;;;;;5055119;28;20029;-75
2022/04/26 04:13:13;;;;;;;56.22;28.55;;;6.50;99.90;;;;;;5053908;28;20021;-75
2022/04/26 04:15:39;;;;;;;57.97;27.52;;;6.50;99.90;;;;;;5053715;28;20194;-75
2022/04/26 04:19:17;;;;;;;53.17;28.80;;;6.50;99.90;;;;;;5053791;28;20021;-74
2022/04/26 04:20:54;;;;;;;57.20;28.92;;;6.50;99.90;;;;;;5054958;28;20099;-74
2022/04/26 04:23:20;;;;;;;59.85;28.23;;;6.50;99.90;;;;;;5054951;28;20057;-74
2022/04/26 04:25:46;;;;;;;58.67;29.73;;;6.60;99.90;;;;;;5053603;28;20029;-73
2022/04/26 04:28:11;;;;;;;54.80;27.77;;;6.60;99.90;;;;;;5053691;28;20029;-73
2022/04/26 04:30:37;;;;;;;54.35;27.92;;;6.50;99.90;;;;;;5054695;28;20021;-73
2022/04/26 04:33:03;;;;;;;54.15;27.42;;;6.60;99.90;;;;;;5054612;28;20066;-75
2022/04/26 04:35:28;;;;;;;56.92;29.25;;;6.60;99.90;;;;;;5054876;28;20487;-75
2022/04/26 04:37:54;;;;;;;50.05;26.98;;;6.60;99.90;;;;;;5053128;28;20082;-74
2022/04/26 04:40:19;;;;;;;49.63;26.05;;;6.60;99.90;;;;;;5053341;28;20029;-73
2022/04/26 04:42:45;;;;;;;55.00;28.83;;;6.60;99.90;;;;;;5054531;28;20079;-73
2022/04/26 04:45:11;;;;;;;53.13;27.13;;;6.50;99.90;;;;;;5053320;28;20017;-73
2022/04/26 04:47:36;;;;;;;54.15;27.70;;;6.50;99.90;;;;;;5054446;28;20479;-75
2022/04/26 04:50:02;;;;;;;57.72;27.45;;;6.60;99.90;;;;;;5054410;28;20025;-74
2022/04/26 04:52:28;;;;;;;57.83;26.98;;;6.50;99.90;;;;;;5053092;28;20047;-75
2022/04/26 04:54:53;;;;;;;54.83;27.70;;;6.60;99.90;;;;;;5053182;28;20017;-74
2022/04/26 04:57:19;;;;;;;68.53;30.80;;;6.60;99.90;;;;;;5053040;28;20072;-74
2022/04/26 04:59:45;;;;;;;214.65;101.22;;;6.60;99.90;;;;;;5053009;28;20021;-76
2022/04/26 05:02:10;;;;;;;798.17;398.30;;;6.60;99.90;;;;;;5037716;28;20507;-75
2022/04/26 05:04:36;;;;;;;648.15;312.17;;;6.60;99.90;;;;;;5032999;28;20021;-75
2022/04/26 05:07:02;;;;;;;464.58;202.02;;;6.60;99.90;;;;;;5032739;28;20038;-75
2022/04/26 05:09:28;;;;;;;473.77;252.18;;;6.70;99.90;;;;;;5038487;28;20018;-75
2022/04/26 05:11:54;;;;;;;246.32;133.82;;;6.70;99.90;;;;;;5034802;28;20482;-75
2022/04/26 05:14:19;;;;;;;271.10;146.82;;;6.70;99.90;;;;;;5033893;28;20030;-75
2022/04/26 05:16:45;;;;;;;423.35;206.93;;;6.70;99.90;;;;;;5032407;28;20045;-73
2022/04/26 05:19:10;;;;;;;565.45;278.05;;;6.70;99.90;;;;;;5032780;28;20037;-74
2022/04/26 05:21:36;;;;;;;226.18;88.25;;;6.80;99.90;;;;;;5032747;28;20052;-73
2022/04/26 05:26:45;;;;;;;528.10;205.38;;;6.80;99.90;;;;;;5053268;28;20059;-75
2022/04/26 05:29:11;;;;;;;245.90;100.03;;;6.80;99.90;;;;;;5052487;28;20482;-76
2022/04/26 05:31:36;;;;;;;344.85;122.80;;;6.80;99.90;;;;;;5051600;28;20106;-75
2022/04/26 05:34:02;;;;;;;1027.22;453.55;;;6.90;99.90;;;;;;5052427;28;20124;-75
2022/04/26 05:36:28;;;;;;;869.33;379.15;;;6.90;99.90;;;;;;5046377;28;20025;-76
2022/04/26 05:38:53;;;;;;;570.03;260.08;;;6.90;99.90;;;;;;5052578;28;20064;-76
2022/04/26 05:41:19;;;;;;;331.23;121.22;;;6.90;99.90;;;;;;5051626;28;20036;-76
2022/04/26 05:43:44;;;;;;;198.10;69.50;;;7.00;99.90;;;;;;5071500;28;20028;-75
2022/04/26 05:46:13;;;;;;;239.30;78.28;;;7.10;99.90;;;;;;5073279;28;20032;-73
2022/04/26 05:48:40;;;;;;;242.90;82.38;;;7.10;99.90;;;;;;5073433;28;20031;-74
2022/04/26 05:51:06;;;;;;;84.25;35.30;;;7.10;99.90;;;;;;5071992;28;20485;-73
2022/04/26 05:53:32;;;;;;;62.42;31.48;;;7.00;99.90;;;;;;5073341;28;20029;-75
2022/04/26 05:55:57;;;;;;;341.90;152.60;;;7.10;99.90;;;;;;5073036;28;20458;-74
2022/04/26 05:58:23;;;;;;;185.45;81.55;;;7.10;99.90;;;;;;5052795;28;20017;-74
2022/04/26 06:00:48;;;;;;;62.17;30.48;;;7.10;99.90;;;;;;5049375;28;20036;-73
2022/04/26 06:03:14;;;;;;;49.00;28.55;;;7.10;99.90;;;;;;5047524;28;20028;-74
2022/04/26 06:05:39;;;;;;;71.32;30.88;;;7.10;99.90;;;;;;5050820;28;20061;-74
2022/04/26 06:08:07;;;;;;;47.92;26.20;;;7.10;99.90;;;;;;5048892;28;20108;-76
2022/04/26 06:10:33;;;;;;;48.40;26.92;;;7.10;99.90;;;;;;5050427;28;20029;-74
2022/04/26 06:12:58;;;;;;;51.50;25.30;;;7.10;99.90;;;;;;5043871;28;20051;-75
2022/04/26 06:15:24;;;;;;;74.72;32.90;;;7.20;99.90;;;;;;5050235;28;20059;-73
2022/04/26 06:17:49;;;;;;;146.55;64.50;;;7.20;99.90;;;;;;5052278;28;20021;-74
2022/04/26 06:20:16;;;;;;;96.82;48.72;;;7.20;99.90;;;;;;5048159;28;20053;-74
2022/04/26 06:22:42;;;;;;;144.70;70.00;;;7.20;99.90;;;;;;5030717;28;20036;-74
2022/04/26 06:25:08;;;;;;;63.22;31.48;;;7.30;99.90;;;;;;5030375;28;20430;-76
2022/04/26 06:27:34;;;;;;;121.57;57.53;;;7.40;99.90;;;;;;5034915;28;20052;-75
2022/04/26 06:29:59;;;;;;;144.05;56.92;;;7.40;99.90;;;;;;5048790;28;20452;-74
2022/04/26 06:32:25;;;;;;;177.60;68.57;;;7.50;99.90;;;;;;5049201;28;20132;-73
2022/04/26 06:34:50;;;;;;;202.70;71.00;;;7.60;99.90;;;;;;5052109;28;20025;-75
2022/04/26 06:37:16;;;;;;;104.07;46.38;;;7.60;99.90;;;;;;5053005;28;20032;-75
2022/04/26 06:39:42;;;;;;;107.18;46.88;;;7.60;99.90;;;;;;5052429;28;20029;-74
2022/04/26 06:42:07;;;;;;;111.40;52.42;;;7.60;99.90;;;;;;5049721;28;20026;-73
2022/04/26 06:44:33;;;;;;;118.00;63.83;;;7.60;99.90;;;;;;5049645;28;20108;-73
2022/04/26 06:46:59;;;;;;;162.90;86.25;;;7.60;99.90;;;;;;5050868;28;20021;-74
2022/04/26 06:49:24;;;;;;;182.82;72.80;;;7.50;99.90;;;;;;5050933;28;20569;-74
2022/04/26 06:51:50;;;;;;;108.93;44.85;;;7.50;99.90;;;;;;5049935;28;20083;-73
2022/04/26 06:54:15;;;;;;;66.93;33.47;;;7.50;99.90;;;;;;5050016;28;20017;-74
2022/04/26 06:56:41;;;;;;;85.57;44.97;;;7.50;99.90;;;;;;5055374;28;20036;-73
2022/04/26 06:59:07;;;;;;;69.63;35.72;;;7.50;99.90;;;;;;5056715;28;20020;-74
2022/04/26 07:01:32;;;;;;;111.88;47.70;;;7.40;99.90;;;;;;5056725;28;20013;-74
2022/04/26 07:03:58;;;;;;;75.53;34.25;;;7.50;99.90;;;;;;5055382;28;20021;-73
2022/04/26 07:06:23;;;;;;;91.35;39.92;;;7.50;99.90;;;;;;5055579;28;20382;-75
2022/04/26 07:08:49;;;;;;;75.32;36.97;;;7.60;99.90;;;;;;5056551;28;20052;-73
2022/04/26 07:11:15;;;;;;;140.88;72.00;;;7.60;99.90;;;;;;5055101;28;20036;-74
2022/04/26 07:13:41;;;;;;;95.00;40.58;;;7.60;99.90;;;;;;5055119;28;20025;-76
2022/04/26 07:16:07;;;;;;;110.05;40.95;;;7.60;99.90;;;;;;5056292;28;20048;-75
2022/04/26 07:18:33;;;;;;;81.60;34.38;;;7.60;99.90;;;;;;5055229;28;20032;-74
2022/04/26 07:20:59;;;;;;;101.57;46.03;;;7.70;99.90;;;;;;5056321;28;20108;-74
2022/04/26 07:23:25;;;;;;;59.13;27.63;;;7.80;99.90;;;;;;5056351;28;20057;-75
2022/04/26 07:25:52;;;;;;;69.45;31.08;;;7.80;99.90;;;;;;5055829;28;20423;-73
2022/04/26 07:28:19;;;;;;;75.07;34.97;;;7.80;99.90;;;;;;5054803;28;20493;-75
2022/04/26 07:30:44;;;;;;;86.90;36.47;;;7.70;99.90;;;;;;5055945;28;20044;-74
2022/04/26 07:35:54;;;;;;;68.63;33.22;;;7.80;99.90;;;;;;5055929;28;20033;-74
2022/04/26 07:38:20;;;;;;;76.18;34.13;;;7.90;99.90;;;;;;5055860;28;20033;-74
2022/04/26 07:40:49;;;;;;;62.85;29.08;;;7.90;99.90;;;;;;5054569;28;20036;-75
2022/04/26 07:43:15;;;;;;;67.38;32.15;;;7.90;99.90;;;;;;5055988;28;20501;-73
2022/04/26 07:45:42;;;;;;;65.72;29.58;;;8.00;99.90;;;;;;5055840;28;20025;-73
2022/04/26 07:48:09;;;;;;;64.07;29.23;;;8.00;99.90;;;;;;5054398;28;20025;-73
2022/04/26 07:50:36;;;;;;;46.53;23.88;;;8.00;99.90;;;;;;5054154;28;20070;-75
2022/04/26 07:53:02;;;;;;;64.65;30.38;;;8.00;99.90;;;;;;5054296;28;20436;-75
2022/04/26 07:55:29;;;;;;;64.80;31.15;;;8.00;99.90;;;;;;5055488;28;20021;-74
2022/04/26 07:57:55;;;;;;;65.40;36.97;;;8.10;99.90;;;;;;5054249;28;20021;-76
2022/04/26 08:00:20;;;;;;;94.43;50.08;;;8.10;99.90;;;;;;5055387;28;20390;-74
2022/04/26 08:02:46;;;;;;;83.72;37.08;;;8.10;99.90;;;;;;5055539;28;20096;-74
2022/04/26 08:05:14;;;;;;;51.10;26.90;;;8.10;99.90;;;;;;5054127;28;20025;-74
2022/04/26 08:07:41;;;;;;;54.42;29.15;;;8.10;99.90;;;;;;5054792;28;20471;-74
2022/04/26 08:10:10;;;;;;;47.42;24.42;;;8.20;99.90;;;;;;5055423;28;20025;-73
2022/04/26 08:12:38;;;;;;;54.47;28.73;;;8.10;99.90;;;;;;5054968;28;20459;-74
2022/04/26 08:15:04;;;;;;;41.13;22.55;;;8.10;99.90;;;;;;5053649;28;20049;-75
2022/04/26 08:17:29;;;;;;;46.10;24.92;;;8.10;99.90;;;;;;5055215;28;20029;-75
2022/04/26 08:19:55;;;;;;;32.72;19.92;;;8.10;99.90;;;;;;5055108;28;20426;-74
2022/04/26 08:22:21;;;;;;;33.85;20.90;;;8.10;99.90;;;;;;5055078;28;20035;-73
2022/04/26 08:27:33;;;;;;;61.05;31.08;;;8.20;99.90;;;;;;5055217;28;20031;-75
2022/04/26 08:29:59;;;;;;;43.58;24.08;;;8.30;99.90;;;;;;5053616;28;20021;-74
2022/04/26 08:32:26;;;;;;;37.10;20.48;;;8.40;99.90;;;;;;5054753;28;20502;-76
2022/04/26 08:34:53;;;;;;;37.63;20.80;;;8.40;99.90;;;;;;5053521;28;20491;-76
2022/04/26 08:37:19;;;;;;;31.00;17.85;;;8.50;99.90;;;;;;5054781;28;20017;-74
2022/04/26 08:39:44;;;;;;;30.10;17.65;;;8.50;99.90;;;;;;5053474;28;20111;-75
2022/04/26 08:42:10;;;;;;;28.77;16.40;;;8.60;99.90;;;;;;5054620;28;20029;-74
2022/04/26 08:44:36;;;;;;;29.15;16.88;;;8.60;99.90;;;;;;5054534;28;20017;-76
2022/04/26 08:52:46;;;;;;;26.00;16.50;;;8.70;99.90;;;;;;5054522;28;20120;-75
2022/04/26 08:55:12;;;;;;;22.38;14.20;;;8.60;99.90;;;;;;5053078;28;20031;-74
2022/04/26 08:57:37;;;;;;;20.77;14.65;;;8.60;99.90;;;;;;5054308;28;20029;-74
2022/04/26 09:00:05;;;;;;;20.38;13.25;;;8.60;99.90;;;;;;5053119;28;20078;-75
2022/04/26 09:02:30;;;;;;;20.05;12.25;;;8.70;99.90;;;;;;5054277;28;20032;-75
2022/04/26 09:05:01;;;;;;;21.10;13.35;;;8.60;99.90;;;;;;5054217;28;20494;-76
2022/04/26 09:07:39;;;;;;;23.48;14.30;;;8.60;99.90;;;;;;5054374;28;20040;-76
2022/04/26 09:10:12;;;;;;;19.88;11.70;;;8.60;99.90;;;;;;5052903;28;20021;-75
2022/04/26 09:13:15;;;;;;;21.30;13.23;;;8.60;99.90;;;;;;5052711;28;20508;-74
2022/04/26 09:15:46;;;;;;;26.17;15.90;;;8.70;99.90;;;;;;5054046;28;20053;-74
2022/04/26 09:18:27;;;;;;;26.50;15.40;;;8.80;99.90;;;;;;5052698;28;20021;-75
2022/04/26 09:21:09;;;;;;;24.23;14.18;;;8.90;99.90;;;;;;5052800;28;20025;-75
2022/04/26 09:23:38;;;;;;;21.08;13.50;;;9.10;99.90;;;;;;5035748;28;20065;-75
2022/04/26 09:26:09;;;;;;;22.08;13.38;;;9.20;99.90;;;;;;5052210;28;20036;-74
2022/04/26 09:28:40;;;;;;;21.55;13.50;;;9.20;99.90;;;;;;5052216;28;20036;-76
2022/04/26 09:31:25;;;;;;;22.88;12.90;;;9.50;99.90;;;;;;5053851;28;20528;-76
2022/04/26 09:33:53;;;;;;;23.38;14.05;;;9.50;99.90;;;;;;5053791;28;20105;-75
2022/04/26 09:36:24;;;;;;;17.10;12.38;;;9.60;99.90;;;;;;5052316;28;20120;-74
2022/04/26 09:38:58;;;;;;;18.05;12.27;;;9.60;99.90;;;;;;5053667;28;20052;-75
2022/04/26 09:41:27;;;;;;;17.58;11.85;;;9.70;99.90;;;;;;5052170;28;20025;-74
2022/04/26 09:44:04;;;;;;;17.65;12.15;;;9.70;99.90;;;;;;5052300;28;20025;-75
2022/04/26 09:46:49;;;;;;;23.77;12.48;;;9.80;99.90;;;;;;5053602;28;20017;-75
2022/04/26 09:49:21;;;;;;;20.15;13.07;;;9.70;99.90;;;;;;5052162;28;20387;-75
2022/04/26 09:51:51;;;;;;;17.13;11.73;;;9.80;99.90;;;;;;5053257;28;20025;-74
2022/04/26 09:54:17;;;;;;;16.73;11.82;;;9.70;99.90;;;;;;5053460;28;20076;-74
2022/04/26 09:56:46;;;;;;;16.80;10.85;;;9.60;99.90;;;;;;5053396;28;20029;-74
2022/04/26 09:59:15;;;;;;;14.68;10.07;;;9.60;99.90;;;;;;5052072;28;20072;-74
2022/04/26 10:01:47;;;;;;;14.35;10.60;;;9.40;99.90;;;;;;5053204;28;20391;-75
2022/04/26 10:04:17;;;;;;;15.57;10.60;;;9.30;99.90;;;;;;5053279;28;20471;-74
2022/04/26 10:06:45;;;;;;;14.63;9.98;;;9.40;99.90;;;;;;5051922;28;20028;-74
2022/04/26 10:09:12;;;;;;;13.55;8.75;;;9.30;99.90;;;;;;5053041;28;20061;-74
2022/04/26 10:11:38;;;;;;;13.48;8.25;;;9.30;99.90;;;;;;5051538;28;20115;-76
2022/04/26 10:14:06;;;;;;;13.82;9.07;;;9.10;99.90;;;;;;5053071;28;20052;-75
2022/04/26 10:16:33;;;;;;;13.43;9.55;;;9.10;99.90;;;;;;5051699;28;20562;-75
2022/04/26 10:19:06;;;;;;;13.90;8.35;;;9.00;99.90;;;;;;5053069;28;20094;-76
2022/04/26 10:21:38;;;;;;;14.07;9.38;;;9.00;99.90;;;;;;5053098;28;20391;-76
2022/04/26 10:24:17;;;;;;;15.55;9.57;;;8.90;99.90;;;;;;5052966;28;20041;-75
2022/04/26 10:26:43;;;;;;;19.45;10.57;;;8.90;99.90;;;;;;5051728;28;20049;-74
2022/04/26 10:29:09;;;;;;;18.05;10.75;;;8.80;99.90;;;;;;5053371;28;20375;-75
2022/04/26 10:31:44;;;;;;;13.07;10.07;;;8.70;99.90;;;;;;5054960;28;20039;-75
2022/04/26 10:34:29;;;;;;;13.50;9.00;;;8.50;99.90;;;;;;5056925;28;20025;-74
2022/04/26 10:37:06;;;;;;;12.77;8.70;;;8.50;99.90;;;;;;5055634;28;20025;-74
2022/04/26 10:39:33;;;;;;;11.80;8.15;;;8.50;99.90;;;;;;5055653;28;20021;-75
2022/04/26 10:42:01;;;;;;;11.45;7.03;;;8.50;99.90;;;;;;5055746;28;20116;-75
2022/04/26 10:44:30;;;;;;;11.52;7.43;;;8.60;99.90;;;;;;5055716;28;20013;-74
2022/04/26 10:47:02;;;;;;;8.77;6.45;;;8.60;99.90;;;;;;5056787;28;20033;-74
2022/04/26 10:49:35;;;;;;;10.43;6.80;;;8.60;99.90;;;;;;5055648;28;20024;-75
2022/04/26 10:52:19;;;;;;;11.48;6.93;;;8.60;99.90;;;;;;5056934;28;20120;-74
2022/04/26 10:55:01;;;;;;;10.98;7.10;;;8.70;99.90;;;;;;5055504;28;20018;-74
2022/04/26 10:57:45;;;;;;;10.75;7.47;;;8.80;99.90;;;;;;5055511;28;20051;-75
2022/04/26 11:00:16;;;;;;;9.52;6.28;;;8.80;99.90;;;;;;5056480;28;20029;-75
2022/04/26 11:02:43;;;;;;;87.82;26.00;;;8.90;99.90;;;;;;5056691;28;20360;-76
2022/04/26 11:05:12;;;;;;;152.82;46.28;;;8.90;99.90;;;;;;5056585;28;20052;-76
2022/04/26 11:07:42;;;;;;;82.93;27.05;;;8.90;99.90;;;;;;5056443;28;20394;-74
2022/04/26 11:10:10;;;;;;;98.63;31.77;;;8.90;99.90;;;;;;5055223;28;20389;-74
2022/04/26 11:12:38;;;;;;;169.02;49.67;;;8.90;99.90;;;;;;5054991;28;20041;-74
2022/04/26 11:15:24;;;;;;;182.85;52.15;;;8.90;99.90;;;;;;5056186;28;20490;-74
2022/04/26 11:17:52;;;;;;;102.53;32.63;;;8.90;99.90;;;;;;5056444;28;20025;-74
2022/04/26 11:20:20;;;;;;;109.05;32.75;;;8.90;99.90;;;;;;5054989;28;20086;-76
2022/04/26 11:27:59;;;;;;;102.72;30.15;;;8.80;99.90;;;;;;5056361;28;20079;-74
2022/04/26 11:28:33;;;;;;;173.65;51.05;;;8.90;99.90;;;;;;5056292;28;20038;-74
2022/04/26 11:30:59;;;;;;;68.80;23.15;;;9.00;99.90;;;;;;5055886;28;20033;-75
2022/04/26 11:33:25;;;;;;;1036.80;431.73;;;9.10;99.90;;;;;;5056018;28;20147;-74
2022/04/26 11:35:52;;;;;;;863.72;368.65;;;9.20;99.90;;;;;;5055884;28;20113;-75
2022/04/26 11:38:18;;;;;;;895.80;380.90;;;9.30;99.90;;;;;;5055939;28;20494;-74
2022/04/26 11:40:51;;;;;;;128.98;50.55;;;9.30;99.90;;;;;;5053969;28;20048;-74
2022/04/26 11:43:28;;;;;;;204.02;67.57;;;9.50;99.90;;;;;;5054452;28;20013;-74
2022/04/26 11:45:57;;;;;;;13.30;8.43;;;9.50;99.90;;;;;;5055692;28;20025;-75
2022/04/26 11:48:25;;;;;;;89.35;28.90;;;9.50;99.90;;;;;;5055515;28;20051;-75
2022/04/26 11:50:54;;;;;;;36.40;13.82;;;9.60;99.90;;;;;;5054184;28;20025;-75
2022/04/26 11:53:21;;;;;;;17.30;8.13;;;9.60;99.90;;;;;;5055566;28;20474;-74
2022/04/26 11:55:57;;;;;;;14.43;7.68;;;9.80;99.90;;;;;;5054468;28;20024;-75
2022/04/26 11:58:32;;;;;;;7.75;4.95;;;9.80;94.50;;;;;;5055393;28;20025;-74
2022/04/26 12:01:10;;;;;;;40.40;14.90;;;9.80;93.90;;;;;;5053752;28;20025;-75
2022/04/26 12:03:49;;;;;;;17.90;8.65;;;10.00;93.40;;;;;;5040530;28;20014;-76
2022/04/26 12:06:27;;;;;;;17.20;8.20;;;10.00;92.10;;;;;;5033092;28;20483;-76
2022/04/26 12:08:58;;;;;;;10.77;6.03;;;10.10;89.70;;;;;;5044791;28;20022;-76
2022/04/26 12:11:29;;;;;;;10.35;6.47;;;10.10;86.60;;;;;;5041815;28;20546;-76
2022/04/26 12:14:06;;;;;;;20.88;9.15;;;10.20;85.90;;;;;;5047625;28;20067;-76
2022/04/26 12:16:57;;;;;;;153.13;48.03;;;10.20;87.10;;;;;;5042085;28;20045;-75
2022/04/26 12:19:34;;;;;;;31.40;15.60;;;10.30;87.00;;;;;;5060110;28;20506;-76
2022/04/26 12:22:01;;;;;;;17.88;8.68;;;10.40;89.80;;;;;;5046600;28;20070;-76
2022/04/26 12:24:31;;;;;;;24.58;11.23;;;10.50;90.70;;;;;;5049160;28;20056;-76
2022/04/26 12:27:11;;;;;;;167.88;63.42;;;10.40;86.70;;;;;;5034031;28;20025;-76
2022/04/26 12:29:37;;;;;;;297.27;115.82;;;10.50;86.70;;;;;;5034020;28;20034;-76
2022/04/26 12:32:11;;;;;;;62.45;26.50;;;10.40;84.20;;;;;;5032446;28;20523;-76
2022/04/26 12:34:49;;;;;;;36.25;16.52;;;10.30;85.20;;;;;;5032724;28;20037;-76
2022/04/26 12:37:21;;;;;;;63.58;19.52;;;10.30;86.50;;;;;;5033896;28;20160;-76
2022/04/26 12:39:53;;;;;;;86.38;28.52;;;10.20;88.20;;;;;;5032110;28;20029;-76
2022/04/26 12:42:28;;;;;;;64.40;19.88;;;10.20;91.70;;;;;;5032635;28;20028;-76
2022/04/26 12:44:59;;;;;;;35.00;18.08;;;10.30;89.70;;;;;;5048694;28;20036;-76
2022/04/26 12:50:28;;;;;;;46.17;19.13;;;10.40;90.10;;;;;;5073526;28;20036;-76
2022/04/26 12:53:19;;;;;;;;;;;10.30;86.00;;;;;;5072606;28;20032;-76
2022/04/26 12:55:45;;;;;;;91.10;32.53;;;10.30;89.60;;;;;;5071509;28;20346;-76
2022/04/26 12:58:13;;;;;;;92.43;30.67;;;10.30;90.60;;;;;;5072008;28;20104;-76
2022/04/26 13:00:52;;;;;;;163.82;77.00;;;10.30;87.80;;;;;;5068648;28;20438;-76
2022/04/26 13:03:21;;;;;;;33.47;15.98;;;10.20;88.20;;;;;;5053231;28;20086;-75
2022/04/26 13:05:50;;;;;;;20.50;10.27;;;10.20;87.30;;;;;;5053045;28;20410;-73
2022/04/26 13:08:18;;;;;;;34.35;15.05;;;10.30;87.60;;;;;;5051914;28;20151;-75
2022/04/26 13:10:44;;;;;;;60.90;19.45;;;10.40;86.50;;;;;;5051266;28;20067;-75
2022/04/26 13:13:11;;;;;;;22.70;11.40;;;10.40;88.20;;;;;;5053259;28;20368;-72
2022/04/26 13:15:37;;;;;;;67.03;29.15;;;10.40;88.10;;;;;;5051845;28;20045;-75
2022/04/26 13:18:04;;;;;;;121.30;45.72;;;10.40;92.20;;;;;;5051736;28;20024;-76
2022/04/26 13:20:31;;;;;;;42.03;18.05;;;10.60;91.30;;;;;;5051555;28;20087;-76
2022/04/26 13:22:56;;;;;;;52.38;20.33;;;10.60;87.20;;;;;;5050975;28;20390;-76
2022/04/26 13:25:22;;;;;;;15.93;9.45;;;10.60;85.60;;;;;;5050516;28;20116;-74
2022/04/26 13:27:48;;;;;;;9.48;6.40;;;10.50;87.50;;;;;;5053762;28;20513;-76
2022/04/26 13:30:15;;;;;;;67.55;24.42;;;10.50;86.30;;;;;;5053560;28;20028;-76
2022/04/26 13:32:41;;;;;;;13.52;8.65;;;10.50;86.60;;;;;;5052078;28;20037;-76
2022/04/26 13:35:08;;;;;;;19.67;9.85;;;10.40;85.70;;;;;;5052330;28;20041;-76
2022/04/26 13:37:35;;;;;;;16.65;8.10;;;10.20;89.60;;;;;;5052170;28;20017;-76
2022/04/26 13:40:02;;;;;;;32.28;15.02;;;10.20;89.70;;;;;;5052200;28;20038;-74
2022/04/26 13:42:30;;;;;;;12.25;8.30;;;10.10;91.90;;;;;;5053257;28;20017;-74
2022/04/26 13:44:55;;;;;;;24.90;10.15;;;10.20;93.80;;;;;;5051313;28;20443;-76
2022/04/26 13:47:22;;;;;;;12.48;7.40;;;10.10;87.10;;;;;;5051092;28;20070;-75
2022/04/26 13:49:47;;;;;;;14.48;8.88;;;10.00;87.80;;;;;;5051592;28;20025;-76
2022/04/26 13:52:13;;;;;;;344.92;142.15;;;10.00;89.40;;;;;;5050103;28;20092;-74
2022/04/26 13:54:41;;;;;;;129.25;50.38;;;10.00;92.70;;;;;;5049886;28;20013;-76
2022/04/26 13:57:07;;;;;;;86.78;28.02;;;9.90;89.10;;;;;;5050133;28;20040;-74
2022/04/26 13:59:33;;;;;;;53.58;21.80;;;10.00;91.00;;;;;;5051371;28;20025;-75
2022/04/26 14:01:58;;;;;;;29.95;13.75;;;10.00;90.10;;;;;;5051660;28;20025;-74
2022/04/26 14:04:24;;;;;;;18.70;10.05;;;10.00;92.20;;;;;;5050734;28;20026;-74
2022/04/26 14:06:49;;;;;;;14.13;9.90;;;10.00;92.60;;;;;;5051966;28;20025;-74
2022/04/26 14:09:17;;;;;;;16.67;10.85;;;10.00;95.40;;;;;;5051895;28;20013;-74
2022/04/26 14:11:45;;;;;;;16.88;12.10;;;9.90;90.20;;;;;;5053087;28;20402;-74
2022/04/26 14:22:23;;;;;;;17.05;10.18;;;10.40;87.00;;;;;;5053141;28;20119;-74
2022/04/26 14:24:52;;;;;;;20.30;13.48;;;10.40;84.30;;;;;;5053076;28;20075;-74
2022/04/26 14:27:19;;;;;;;28.55;15.05;;;10.50;86.00;;;;;;5053043;28;20166;-75
2022/04/26 14:29:44;;;;;;;22.33;12.05;;;10.40;86.60;;;;;;5051724;28;20103;-74
2022/04/26 14:32:11;;;;;;;20.40;12.25;;;10.30;86.80;;;;;;5052949;28;20166;-76
2022/04/26 14:34:38;;;;;;;25.48;16.00;;;10.30;85.70;;;;;;5035209;28;20083;-74
2022/04/26 14:37:04;;;;;;;26.65;14.02;;;10.20;87.00;;;;;;5051763;28;20367;-74
2022/04/26 14:39:30;;;;;;;19.75;11.15;;;10.30;85.60;;;;;;5051512;28;20442;-74
2022/04/26 14:41:55;;;;;;;19.15;12.50;;;10.20;82.10;;;;;;5052860;28;20029;-74
2022/04/26 14:44:21;;;;;;;20.52;12.20;;;10.20;83.20;;;;;;5051559;28;20261;-74
2022/04/26 14:46:47;;;;;;;21.38;13.20;;;10.30;81.20;;;;;;5052627;28;20466;-74
2022/04/26 14:49:12;;;;;;;18.75;11.13;;;10.40;80.60;;;;;;5051441;28;20394;-74
2022/04/26 14:51:38;;;;;;;17.52;11.85;;;10.40;81.00;;;;;;5052649;28;20501;-74
2022/04/26 14:54:03;;;;;;;19.45;11.52;;;10.50;81.00;;;;;;5049845;28;20096;-76
2022/04/26 14:56:29;;;;;;;18.17;12.10;;;10.50;81.80;;;;;;5050376;28;20147;-73
2022/04/26 14:58:55;;;;;;;19.52;13.40;;;10.40;82.50;;;;;;5050606;28;20024;-76
2022/04/26 15:01:21;;;;;;;23.25;14.57;;;10.20;82.70;;;;;;5050638;28;20120;-75
2022/04/26 15:03:46;;;;;;;26.70;14.65;;;10.10;83.40;;;;;;5051794;28;20463;-76
2022/04/26 15:06:12;;;;;;;28.17;17.67;;;10.00;85.10;;;;;;5052028;28;20043;-76
2022/04/26 15:11:22;;;;;;;29.13;18.20;;;9.80;87.20;;;;;;5050404;28;20094;-76
2022/04/26 15:16:38;;;;;;;24.55;16.08;;;9.70;90.40;;;;;;5053278;28;20075;-76
2022/04/26 15:19:08;;;;;;;29.17;17.13;;;9.60;90.60;;;;;;5056231;28;20485;-74
2022/04/26 15:21:34;;;;;;;26.83;15.50;;;9.60;92.20;;;;;;5056073;28;20029;-76
2022/04/26 15:23:59;;;;;;;22.85;13.77;;;9.60;92.20;;;;;;5056188;28;20437;-74
2022/04/26 15:26:25;;;;;;;24.60;14.70;;;9.50;92.70;;;;;;5055040;28;20460;-76
2022/04/26 15:28:52;;;;;;;30.52;15.73;;;9.40;92.90;;;;;;5056033;28;20075;-75
2022/04/26 15:31:21;;;;;;;24.92;14.82;;;9.30;93.00;;;;;;5055587;28;20064;-74
2022/04/26 15:33:48;;;;;;;27.88;16.00;;;9.30;93.70;;;;;;5055881;28;20490;-74
2022/04/26 15:36:15;;;;;;;36.20;21.98;;;9.30;94.40;;;;;;5052176;28;20028;-73
2022/04/26 15:38:40;;;;;;;35.58;20.45;;;9.30;96.80;;;;;;5055048;28;20434;-73
2022/04/26 15:41:07;;;;;;;24.85;15.85;;;9.30;93.50;;;;;;5054619;28;20041;-73
2022/04/26 15:43:33;;;;;;;34.97;17.88;;;9.30;95.00;;;;;;5052181;28;21172;-73
2022/04/26 15:46:00;;;;;;;45.58;28.30;;;9.20;99.30;;;;;;5053139;28;20072;-74
2022/04/26 15:48:27;;;;;;;53.33;36.95;;;9.20;99.90;;;;;;5051473;28;20061;-74
2022/04/26 15:50:53;;;;;;;169.93;119.32;;;9.10;99.90;;;;;;5049272;28;20049;-74
2022/04/26 15:53:19;;;;;;;40.53;23.65;;;9.10;99.90;;;;;;5054349;28;20104;-74
2022/04/26 15:55:45;;;;;;;42.10;24.70;;;9.00;99.90;;;;;;5054354;28;20025;-74
2022/04/26 15:58:11;;;;;;;56.25;44.88;;;9.10;99.90;;;;;;5051970;28;20044;-74
2022/04/26 16:00:37;;;;;;;33.47;22.75;;;9.10;99.90;;;;;;5054584;28;20028;-74
2022/04/26 16:03:03;;;;;;;37.63;25.55;;;9.10;99.90;;;;;;5053077;28;20036;-74
2022/04/26 16:05:29;;;;;;;38.67;22.75;;;9.10;99.90;;;;;;5053116;28;20021;-74
2022/04/26 16:07:55;;;;;;;64.60;38.78;;;9.00;99.90;;;;;;5053092;28;20028;-74
2022/04/26 16:21:22;;;;;;;52.60;36.33;;;8.70;99.90;;;;;;5054361;28;20060;-74
2022/04/26 16:23:48;;;;;;;41.22;25.83;;;8.70;99.90;;;;;;5053390;28;20029;-73
2022/04/26 16:26:15;;;;;;;41.58;23.23;;;8.70;99.90;;;;;;5054552;28;20108;-74
2022/04/26 16:28:40;;;;;;;35.45;23.77;;;8.70;99.90;;;;;;5054136;28;20063;-75
2022/04/26 16:31:06;;;;;;;36.55;20.15;;;8.80;99.90;;;;;;5052960;28;20029;-73
2022/04/26 16:33:32;;;;;;;31.23;19.30;;;8.80;99.90;;;;;;5054663;28;20032;-74
2022/04/26 16:35:58;;;;;;;65.72;31.90;;;8.90;99.90;;;;;;5054481;28;20096;-73
2022/04/26 16:38:24;;;;;;;67.72;35.83;;;8.80;99.90;;;;;;5054431;28;20021;-74
2022/04/26 16:40:50;;;;;;;56.90;31.35;;;8.80;99.90;;;;;;5054278;28;20143;-73
2022/04/26 16:43:16;;;;;;;50.83;27.65;;;8.80;99.90;;;;;;5054213;28;20028;-74
2022/04/26 16:45:45;;;;;;;32.72;18.63;;;8.80;99.90;;;;;;5054177;28;20033;-73
2022/04/26 16:48:11;;;;;;;105.35;49.70;;;8.70;99.90;;;;;;5053956;28;20022;-73
2022/04/26 16:50:37;;;;;;;97.50;45.67;;;8.80;99.90;;;;;;5052578;28;20017;-74
2022/04/26 16:53:04;;;;;;;114.45;61.15;;;8.80;99.90;;;;;;5051535;28;20056;-74
2022/04/26 16:55:30;;;;;;;71.43;39.85;;;8.80;99.90;;;;;;5052809;28;20099;-73
2022/04/26 16:57:57;;;;;;;74.90;43.05;;;8.80;99.90;;;;;;5053994;28;20098;-74